Time;durP1;ratioP1;P1;durP2;ratioP2;P2;SDS_P1;SDS_P2;PMS_P1;PMS_P2;Temp;Humidity;BMP_temperature;BMP_pressure;BME280_temperature;BME280_humidity;BME280_pressure;Samples;Min_cycle;Max_cycle;Signal;HPM_P1;HPM_P2
2021/07/04 00:01:07;;;;;;;12.50;10.05;;;23.60;87.60;;;;;;5054058;28;20024;-65
2021/07/04 00:03:33;;;;;;;11.43;9.82;;;23.60;87.70;;;;;;5040160;28;20021;-65
2021/07/04 00:05:58;;;;;;;11.85;10.05;;;23.60;87.50;;;;;;5054008;28;20029;-65
2021/07/04 00:08:25;;;;;;;10.63;9.10;;;23.50;87.30;;;;;;5054376;28;20028;-65
2021/07/04 00:10:54;;;;;;;10.35;8.77;;;23.50;87.30;;;;;;5054069;28;20167;-65
2021/07/04 00:13:21;;;;;;;13.00;9.52;;;23.50;87.40;;;;;;5054033;28;20033;-65
2021/07/04 00:15:48;;;;;;;10.95;9.93;;;23.50;87.50;;;;;;5053879;28;20020;-65
2021/07/04 00:18:19;;;;;;;11.15;9.80;;;23.50;87.40;;;;;;5053685;28;20105;-65
2021/07/04 00:20:45;;;;;;;9.88;8.88;;;23.40;87.30;;;;;;5046574;28;20373;-65
2021/07/04 00:23:11;;;;;;;10.38;9.23;;;23.40;87.10;;;;;;5048912;28;20027;-65
2021/07/04 00:25:38;;;;;;;9.20;8.30;;;23.30;87.30;;;;;;5053338;28;20049;-65
2021/07/04 00:28:04;;;;;;;8.93;8.02;;;23.30;87.40;;;;;;5060395;28;20017;-65
2021/07/04 00:30:30;;;;;;;11.55;8.32;;;23.30;87.10;;;;;;5053879;28;20559;-65
2021/07/04 00:32:56;;;;;;;9.75;8.75;;;23.20;87.10;;;;;;5053548;28;20029;-65
2021/07/04 00:35:23;;;;;;;9.55;8.65;;;23.20;87.10;;;;;;5052101;28;20040;-65
2021/07/04 00:37:49;;;;;;;10.57;9.48;;;23.20;87.30;;;;;;5045143;28;20033;-65
2021/07/04 00:40:16;;;;;;;12.60;10.70;;;23.10;87.30;;;;;;5053661;28;20013;-65
2021/07/04 00:42:42;;;;;;;12.02;9.13;;;23.10;87.20;;;;;;5053524;28;20028;-65
2021/07/04 00:45:20;;;;;;;9.93;8.60;;;23.20;87.30;;;;;;5053127;28;20043;-65
2021/07/04 00:47:47;;;;;;;10.25;8.70;;;23.10;87.10;;;;;;5053573;28;20025;-65
2021/07/04 00:50:14;;;;;;;9.10;8.20;;;23.10;87.30;;;;;;5052010;28;20033;-65
2021/07/04 00:52:41;;;;;;;9.32;8.32;;;23.10;87.40;;;;;;5047329;28;20025;-65
2021/07/04 00:55:09;;;;;;;10.90;8.90;;;23.10;87.20;;;;;;5053106;28;20491;-65
2021/07/04 00:57:34;;;;;;;9.27;8.27;;;23.10;87.40;;;;;;5053606;28;20033;-65
2021/07/04 01:00:01;;;;;;;8.68;7.78;;;23.10;87.20;;;;;;5053227;28;20025;-65
2021/07/04 01:02:27;;;;;;;8.63;7.50;;;23.00;87.10;;;;;;5053131;28;20070;-65
2021/07/04 01:04:54;;;;;;;7.90;6.78;;;23.00;87.30;;;;;;5053108;28;20050;-65
2021/07/04 01:07:21;;;;;;;7.63;6.40;;;23.00;87.10;;;;;;5051470;28;20017;-65
2021/07/04 01:09:47;;;;;;;7.85;6.88;;;23.00;87.10;;;;;;5053041;28;20025;-65
2021/07/04 01:12:13;;;;;;;7.78;6.97;;;23.00;87.10;;;;;;5052987;28;20028;-65
2021/07/04 01:14:39;;;;;;;8.32;7.43;;;23.00;87.10;;;;;;5053645;28;20133;-65
2021/07/04 01:17:04;;;;;;;7.85;7.05;;;22.90;87.30;;;;;;5052888;28;20468;-65
2021/07/04 01:19:30;;;;;;;9.00;7.35;;;22.90;87.50;;;;;;5052945;28;20353;-65
2021/07/04 01:21:57;;;;;;;9.38;7.60;;;22.90;87.60;;;;;;5059688;28;20041;-65
2021/07/04 01:24:23;;;;;;;7.93;6.63;;;22.90;87.90;;;;;;5052618;28;20048;-65
2021/07/04 01:26:49;;;;;;;8.65;7.25;;;22.90;87.90;;;;;;5053201;28;20376;-65
2021/07/04 01:29:16;;;;;;;8.00;7.20;;;22.90;87.90;;;;;;5052636;28;20025;-65
2021/07/04 01:31:42;;;;;;;8.13;7.32;;;22.90;87.90;;;;;;5053551;28;20051;-65
2021/07/04 01:34:09;;;;;;;8.38;7.00;;;22.90;88.00;;;;;;5052994;28;20472;-65
2021/07/04 01:36:37;;;;;;;7.75;6.85;;;22.90;87.80;;;;;;5046928;28;20129;-65
2021/07/04 01:39:04;;;;;;;7.88;7.07;;;22.90;87.60;;;;;;5052840;28;20508;-65
2021/07/04 01:41:30;;;;;;;11.60;7.10;;;22.90;87.60;;;;;;5056716;28;20009;-65
2021/07/04 01:43:56;;;;;;;9.25;6.82;;;22.90;87.60;;;;;;5056688;28;20021;-65
2021/07/04 01:46:22;;;;;;;11.48;6.93;;;22.80;87.70;;;;;;5056342;28;20025;-65
2021/07/04 01:48:48;;;;;;;7.47;6.68;;;22.80;87.40;;;;;;5057123;28;20112;-65
2021/07/04 01:51:14;;;;;;;7.95;7.15;;;22.80;87.50;;;;;;5056216;28;20457;-65
2021/07/04 01:53:39;;;;;;;9.02;7.15;;;22.80;87.60;;;;;;5055820;28;20025;-65
2021/07/04 01:56:07;;;;;;;9.40;7.22;;;22.80;87.60;;;;;;5056406;28;20028;-65
2021/07/04 01:58:36;;;;;;;7.88;7.07;;;22.70;87.70;;;;;;5056404;28;20017;-65
2021/07/04 02:01:05;;;;;;;7.68;6.97;;;22.80;87.90;;;;;;5056382;28;20070;-65
2021/07/04 02:03:31;;;;;;;8.30;7.25;;;22.80;88.10;;;;;;5056311;28;20028;-65
2021/07/04 02:05:56;;;;;;;7.88;6.80;;;22.70;87.90;;;;;;5057105;28;20021;-65
2021/07/04 02:08:22;;;;;;;7.78;6.72;;;22.70;88.20;;;;;;5055924;28;20025;-65
2021/07/04 02:10:48;;;;;;;8.07;7.28;;;22.70;88.20;;;;;;5056159;28;20043;-65
2021/07/04 02:13:14;;;;;;;9.38;7.03;;;22.80;88.30;;;;;;5056107;28;20032;-65
2021/07/04 02:15:40;;;;;;;8.55;7.47;;;22.80;88.50;;;;;;5055881;28;20021;-65
2021/07/04 02:18:13;;;;;;;7.35;6.63;;;22.80;88.30;;;;;;5056047;28;20074;-65
2021/07/04 02:20:44;;;;;;;8.00;6.75;;;22.80;88.50;;;;;;5055958;28;20100;-65
2021/07/04 02:23:11;;;;;;;8.70;7.53;;;22.80;88.40;;;;;;5056332;28;20088;-65
2021/07/04 02:25:39;;;;;;;7.72;6.70;;;22.80;88.50;;;;;;5055884;28;20128;-65
2021/07/04 02:28:06;;;;;;;7.70;6.93;;;22.80;88.60;;;;;;5056005;28;20103;-65
2021/07/04 02:30:32;;;;;;;8.45;7.65;;;22.80;88.90;;;;;;5055587;28;20548;-65
2021/07/04 02:33:02;;;;;;;8.75;7.85;;;22.90;89.10;;;;;;5055600;28;20025;-65
2021/07/04 02:35:29;;;;;;;12.48;11.15;;;22.90;89.40;;;;;;5054223;28;20449;-65
2021/07/04 02:37:55;;;;;;;13.77;12.30;;;22.90;89.40;;;;;;5046634;28;20035;-65
2021/07/04 02:40:22;;;;;;;9.52;8.52;;;22.90;89.50;;;;;;5056005;28;20436;-65
2021/07/04 02:42:48;;;;;;;12.70;9.20;;;22.90;89.60;;;;;;5055802;28;20017;-65
2021/07/04 02:45:14;;;;;;;11.38;8.05;;;22.90;89.90;;;;;;5055437;28;20092;-65
2021/07/04 02:47:40;;;;;;;8.77;7.57;;;23.00;90.00;;;;;;5054116;28;20104;-65
2021/07/04 02:50:07;;;;;;;9.60;8.60;;;23.00;90.00;;;;;;5057298;28;20109;-65
2021/07/04 02:52:33;;;;;;;9.55;8.65;;;23.00;90.10;;;;;;5057161;28;20405;-65
2021/07/04 02:54:59;;;;;;;9.55;7.57;;;23.10;90.00;;;;;;5055332;28;20063;-65
2021/07/04 02:57:24;;;;;;;11.20;8.35;;;23.10;90.00;;;;;;5055805;28;20029;-65
2021/07/04 02:59:50;;;;;;;8.95;8.05;;;23.10;90.10;;;;;;5055254;28;20032;-65
2021/07/04 03:02:16;;;;;;;10.77;8.95;;;23.10;90.10;;;;;;5055254;28;20013;-65
2021/07/04 03:04:42;;;;;;;9.85;8.85;;;23.10;90.20;;;;;;5055109;28;20025;-65
2021/07/04 03:07:08;;;;;;;11.68;8.60;;;23.20;90.20;;;;;;5054881;28;20025;-65
2021/07/04 03:09:33;;;;;;;10.55;8.55;;;23.20;90.30;;;;;;5042786;28;20048;-65
2021/07/04 03:11:59;;;;;;;10.02;8.45;;;23.20;90.30;;;;;;5055146;28;20036;-65
2021/07/04 03:14:25;;;;;;;11.93;9.93;;;23.20;90.40;;;;;;5059108;28;20071;-65
2021/07/04 03:16:50;;;;;;;12.45;10.50;;;23.20;90.40;;;;;;5054746;28;20408;-65
2021/07/04 03:19:16;;;;;;;12.73;11.18;;;23.20;90.40;;;;;;5054787;28;20021;-65
2021/07/04 03:21:42;;;;;;;12.20;11.00;;;23.30;90.30;;;;;;5054931;28;20362;-65
2021/07/04 03:24:08;;;;;;;10.90;9.90;;;23.30;90.10;;;;;;5054631;28;20377;-65
2021/07/04 03:26:35;;;;;;;11.32;10.10;;;23.40;90.10;;;;;;5054744;28;20377;-65
2021/07/04 03:29:00;;;;;;;11.10;9.82;;;23.40;89.70;;;;;;5054615;28;20021;-65
2021/07/04 03:31:26;;;;;;;11.13;10.02;;;23.50;89.30;;;;;;5055146;28;20025;-65
2021/07/04 03:33:52;;;;;;;12.10;10.95;;;23.50;89.20;;;;;;5054624;28;20557;-65
2021/07/04 03:36:17;;;;;;;12.48;10.80;;;23.50;89.20;;;;;;5052187;28;20067;-65
2021/07/04 03:38:43;;;;;;;11.80;10.65;;;23.50;89.30;;;;;;5050133;28;20465;-65
2021/07/04 03:41:09;;;;;;;12.23;10.88;;;23.60;90.00;;;;;;5054018;28;20522;-65
2021/07/04 03:43:34;;;;;;;11.75;10.52;;;23.80;90.30;;;;;;5054130;28;20021;-65
2021/07/04 03:46:00;;;;;;;13.70;11.25;;;24.20;90.40;;;;;;5054518;28;20021;-65
2021/07/04 03:48:26;;;;;;;12.13;10.90;;;24.60;90.10;;;;;;5054662;28;20029;-65
2021/07/04 03:50:51;;;;;;;12.18;10.90;;;25.20;89.40;;;;;;5061742;28;20025;-65
2021/07/04 03:53:17;;;;;;;11.82;10.65;;;25.80;87.50;;;;;;5054062;28;20060;-65
2021/07/04 03:55:42;;;;;;;12.25;10.00;;;26.50;85.40;;;;;;5054232;28;20028;-65
2021/07/04 03:58:08;;;;;;;10.75;9.75;;;27.10;83.50;;;;;;5053783;28;20498;-65
2021/07/04 04:00:34;;;;;;;10.75;9.43;;;27.70;81.40;;;;;;5054124;28;20049;-65
2021/07/04 04:02:59;;;;;;;11.35;10.15;;;28.30;79.40;;;;;;5053982;28;20021;-65
2021/07/04 04:05:25;;;;;;;10.70;9.70;;;28.90;77.90;;;;;;5054494;28;20023;-65
2021/07/04 04:07:51;;;;;;;10.52;9.60;;;29.40;75.30;;;;;;5053890;28;20449;-65
2021/07/04 04:10:16;;;;;;;10.90;9.82;;;29.80;74.10;;;;;;5053857;28;20021;-65
2021/07/04 04:12:42;;;;;;;11.32;9.27;;;30.20;72.60;;;;;;5053948;28;20074;-65
2021/07/04 04:15:09;;;;;;;10.73;9.73;;;30.70;71.50;;;;;;5053975;28;20031;-65
2021/07/04 04:17:35;;;;;;;10.32;9.32;;;31.30;70.10;;;;;;5053773;28;20457;-65
2021/07/04 04:20:02;;;;;;;11.07;9.98;;;31.80;68.60;;;;;;5058471;28;20099;-65
2021/07/04 04:22:27;;;;;;;10.27;9.27;;;32.40;66.90;;;;;;5054206;28;20025;-65
2021/07/04 04:24:53;;;;;;;10.45;9.43;;;32.80;65.10;;;;;;5053355;28;20090;-65
2021/07/04 04:27:18;;;;;;;10.50;9.57;;;32.90;64.00;;;;;;5053647;28;20095;-65
2021/07/04 04:29:45;;;;;;;9.80;8.90;;;32.80;63.30;;;;;;5053504;28;20481;-65
2021/07/04 04:32:10;;;;;;;11.02;10.02;;;32.80;63.70;;;;;;5053389;28;20017;-65
2021/07/04 04:34:36;;;;;;;11.50;10.13;;;33.00;63.20;;;;;;5053579;28;20385;-65
2021/07/04 04:37:03;;;;;;;11.75;9.20;;;33.40;62.50;;;;;;5047355;28;20090;-65
2021/07/04 04:39:29;;;;;;;10.63;9.55;;;33.70;61.70;;;;;;5062059;28;20028;-65
2021/07/04 04:41:55;;;;;;;11.35;10.30;;;33.80;61.10;;;;;;5055338;28;20066;-65
2021/07/04 04:44:21;;;;;;;9.57;8.55;;;34.00;60.50;;;;;;5053222;28;20025;-66
2021/07/04 04:46:46;;;;;;;9.88;8.98;;;34.00;60.40;;;;;;5053401;28;20029;-65
2021/07/04 04:49:12;;;;;;;10.00;8.93;;;34.30;59.90;;;;;;5053342;28;20112;-65
2021/07/04 04:51:39;;;;;;;9.95;9.05;;;34.50;60.00;;;;;;5057259;28;20265;-65
2021/07/04 04:54:05;;;;;;;9.55;8.75;;;34.80;59.40;;;;;;5053302;28;20076;-65
2021/07/04 04:56:31;;;;;;;9.77;8.85;;;35.20;58.80;;;;;;5053653;28;20024;-66
2021/07/04 04:58:57;;;;;;;9.70;8.70;;;35.60;58.40;;;;;;5053158;28;20048;-65
2021/07/04 05:01:26;;;;;;;9.63;8.73;;;36.10;57.20;;;;;;5053290;28;20424;-65
2021/07/04 05:03:52;;;;;;;9.25;8.45;;;36.40;56.30;;;;;;5053303;28;20078;-65
2021/07/04 05:06:18;;;;;;;9.70;8.80;;;36.80;56.00;;;;;;5052868;28;20104;-65
2021/07/04 05:08:44;;;;;;;9.07;8.27;;;37.10;55.10;;;;;;5053146;28;20108;-65
2021/07/04 05:11:10;;;;;;;8.60;7.80;;;37.40;54.50;;;;;;5056381;28;20531;-65
2021/07/04 05:13:36;;;;;;;8.70;7.90;;;37.70;53.90;;;;;;5057725;28;20032;-65
2021/07/04 05:16:03;;;;;;;8.70;7.78;;;37.90;53.40;;;;;;5057224;28;20021;-65
2021/07/04 05:18:29;;;;;;;8.75;7.93;;;38.10;52.90;;;;;;5055869;28;20055;-65
2021/07/04 05:20:55;;;;;;;8.98;8.00;;;38.30;52.40;;;;;;5067892;28;20024;-65
2021/07/04 05:23:20;;;;;;;8.63;7.63;;;38.40;51.60;;;;;;5060091;28;20032;-65
2021/07/04 05:25:46;;;;;;;8.13;7.32;;;38.40;51.10;;;;;;5056792;28;20397;-65
2021/07/04 05:28:11;;;;;;;8.35;7.13;;;38.20;51.00;;;;;;5059156;28;20032;-65
2021/07/04 05:30:37;;;;;;;8.60;7.80;;;37.80;51.10;;;;;;5051119;28;20041;-65
2021/07/04 05:33:03;;;;;;;8.75;7.95;;;37.20;52.50;;;;;;5051729;28;20021;-65
2021/07/04 05:35:29;;;;;;;8.45;7.63;;;36.50;52.70;;;;;;5055031;28;20039;-66
2021/07/04 05:37:54;;;;;;;8.68;7.88;;;35.80;53.70;;;;;;5052618;28;20108;-66
2021/07/04 05:40:20;;;;;;;8.75;7.97;;;35.00;54.70;;;;;;5055962;28;20470;-66
2021/07/04 05:42:46;;;;;;;9.50;8.50;;;34.30;55.80;;;;;;5056366;28;20155;-66
2021/07/04 05:45:19;;;;;;;9.00;8.20;;;33.70;56.80;;;;;;5056056;28;20029;-66
2021/07/04 05:47:45;;;;;;;9.82;8.93;;;33.20;57.80;;;;;;5056710;28;20025;-66
2021/07/04 05:50:11;;;;;;;9.10;8.18;;;32.70;58.70;;;;;;5055688;28;20039;-66
2021/07/04 05:52:37;;;;;;;8.93;8.10;;;32.30;59.50;;;;;;5056531;28;20400;-66
2021/07/04 05:55:03;;;;;;;11.40;8.85;;;31.90;60.20;;;;;;5056424;28;20032;-66
2021/07/04 05:57:29;;;;;;;10.27;9.18;;;31.50;61.00;;;;;;5056353;28;20035;-66
2021/07/04 05:59:54;;;;;;;9.98;8.95;;;31.20;61.80;;;;;;5056510;28;20099;-66
2021/07/04 06:02:20;;;;;;;10.30;9.32;;;31.00;62.50;;;;;;5056177;28;20012;-66
2021/07/04 06:04:46;;;;;;;9.80;8.60;;;30.80;63.00;;;;;;5056892;28;20017;-66
2021/07/04 06:07:11;;;;;;;9.55;8.65;;;30.60;63.60;;;;;;5054201;28;20025;-66
2021/07/04 06:09:37;;;;;;;10.48;9.48;;;30.40;64.00;;;;;;5050734;28;20021;-66
2021/07/04 06:12:03;;;;;;;10.27;9.18;;;30.30;64.40;;;;;;5055657;28;20025;-66
2021/07/04 06:14:28;;;;;;;9.57;8.63;;;30.20;65.10;;;;;;5055977;28;20033;-66
2021/07/04 06:16:54;;;;;;;11.13;9.93;;;30.00;65.20;;;;;;5056195;28;20097;-66
2021/07/04 06:19:19;;;;;;;11.75;10.52;;;29.90;65.50;;;;;;5055347;28;20017;-66
2021/07/04 06:21:45;;;;;;;10.75;9.68;;;29.90;65.80;;;;;;5053386;28;20021;-66
2021/07/04 06:24:12;;;;;;;10.48;9.50;;;29.80;66.00;;;;;;5055918;28;20074;-66
2021/07/04 06:26:37;;;;;;;10.77;9.77;;;29.70;66.40;;;;;;5056034;28;20029;-66
2021/07/04 06:29:03;;;;;;;10.32;9.23;;;29.60;66.90;;;;;;5048993;28;20067;-66
2021/07/04 06:31:29;;;;;;;10.52;9.52;;;29.60;67.40;;;;;;5049158;28;20033;-66
2021/07/04 06:33:58;;;;;;;11.60;10.40;;;29.60;67.40;;;;;;5038151;28;20092;-66
2021/07/04 06:36:25;;;;;;;11.40;10.18;;;29.60;67.60;;;;;;5047594;28;20497;-66
2021/07/04 06:38:51;;;;;;;10.68;9.57;;;29.70;67.30;;;;;;5049454;28;20028;-66
2021/07/04 06:41:17;;;;;;;10.00;9.00;;;29.70;68.30;;;;;;5055245;28;20025;-66
2021/07/04 06:43:43;;;;;;;12.30;9.50;;;29.70;67.60;;;;;;5065412;28;20349;-66
2021/07/04 06:46:09;;;;;;;10.35;9.45;;;29.80;67.70;;;;;;5055427;28;20102;-66
2021/07/04 06:48:37;;;;;;;10.88;9.77;;;29.80;67.30;;;;;;5055494;28;20486;-66
2021/07/04 06:51:02;;;;;;;10.43;9.43;;;29.80;67.30;;;;;;5054627;28;20104;-66
2021/07/04 06:53:28;;;;;;;11.15;10.05;;;29.80;67.60;;;;;;5055381;28;20104;-66
2021/07/04 06:55:53;;;;;;;10.50;9.05;;;29.80;68.20;;;;;;5055798;28;20029;-66
2021/07/04 06:58:19;;;;;;;11.35;10.07;;;29.80;67.90;;;;;;5055098;28;20022;-66
2021/07/04 07:00:45;;;;;;;11.35;9.98;;;29.80;68.30;;;;;;5055585;28;20547;-66
2021/07/04 07:03:12;;;;;;;11.65;10.48;;;29.80;67.80;;;;;;5058649;28;20373;-66
2021/07/04 07:05:37;;;;;;;11.20;10.10;;;29.80;67.60;;;;;;5054659;28;20022;-66
2021/07/04 07:08:03;;;;;;;10.75;9.65;;;29.80;67.50;;;;;;5054565;28;20094;-66
2021/07/04 07:10:29;;;;;;;11.43;10.18;;;29.80;67.80;;;;;;5054218;28;20103;-66
2021/07/04 07:12:55;;;;;;;11.55;10.38;;;29.80;67.60;;;;;;5052519;28;20044;-66
2021/07/04 07:15:21;;;;;;;10.90;9.90;;;29.80;67.80;;;;;;5034580;28;20048;-66
2021/07/04 07:17:47;;;;;;;11.40;10.20;;;29.80;67.80;;;;;;5053750;28;20085;-66
2021/07/04 07:20:12;;;;;;;11.38;10.27;;;29.70;68.20;;;;;;5054288;28;20522;-66
2021/07/04 07:22:38;;;;;;;11.35;10.32;;;29.70;68.00;;;;;;5054211;28;20024;-66
2021/07/04 07:25:05;;;;;;;11.70;10.60;;;29.70;68.30;;;;;;5053932;28;20078;-66
2021/07/04 07:27:31;;;;;;;11.48;10.38;;;29.70;67.90;;;;;;5054295;28;20449;-66
2021/07/04 07:29:57;;;;;;;10.98;9.68;;;29.70;67.70;;;;;;5054698;28;20040;-66
2021/07/04 07:32:23;;;;;;;11.80;10.65;;;29.70;67.30;;;;;;5053277;28;20032;-66
2021/07/04 07:34:48;;;;;;;14.32;10.35;;;29.70;67.20;;;;;;5054161;28;20096;-66
2021/07/04 07:37:15;;;;;;;11.13;10.02;;;29.60;67.20;;;;;;5042995;28;20037;-66
2021/07/04 07:39:40;;;;;;;10.73;9.73;;;29.60;67.50;;;;;;5034113;28;20111;-66
2021/07/04 07:42:06;;;;;;;10.82;9.73;;;29.60;67.30;;;;;;5032680;28;20049;-66
2021/07/04 07:44:32;;;;;;;10.60;9.60;;;29.60;67.50;;;;;;5032297;28;20096;-66
2021/07/04 07:46:57;;;;;;;11.05;10.05;;;29.60;67.80;;;;;;5049302;28;20104;-66
2021/07/04 07:49:23;;;;;;;11.10;10.00;;;29.60;67.50;;;;;;5052772;28;20021;-66
2021/07/04 07:51:49;;;;;;;10.93;9.90;;;29.50;67.00;;;;;;5053214;28;20025;-66
2021/07/04 07:54:18;;;;;;;11.27;10.05;;;29.50;67.20;;;;;;5053774;28;20024;-66
2021/07/04 07:56:44;;;;;;;11.88;10.77;;;29.60;67.40;;;;;;5048897;28;20083;-66
2021/07/04 07:59:10;;;;;;;12.05;10.45;;;29.50;67.70;;;;;;5043819;28;20347;-66
2021/07/04 08:01:35;;;;;;;12.32;11.02;;;29.50;67.50;;;;;;5044519;28;20052;-66
2021/07/04 08:04:01;;;;;;;13.18;10.68;;;29.50;67.50;;;;;;5043913;28;20021;-66
2021/07/04 08:06:26;;;;;;;11.43;10.40;;;29.50;67.30;;;;;;5038872;28;20417;-66
2021/07/04 08:08:52;;;;;;;11.43;10.40;;;29.50;67.40;;;;;;5038120;28;20025;-66
2021/07/04 08:11:18;;;;;;;11.80;10.70;;;29.40;67.60;;;;;;5049084;28;20060;-66
2021/07/04 08:13:44;;;;;;;11.85;10.65;;;29.40;67.70;;;;;;5044534;28;20021;-66
2021/07/04 08:16:09;;;;;;;11.75;10.23;;;29.40;68.00;;;;;;5041815;28;20059;-66
2021/07/04 08:18:35;;;;;;;21.00;17.70;;;29.50;68.00;;;;;;5041773;28;20035;-66
2021/07/04 08:21:01;;;;;;;18.50;16.60;;;29.40;67.80;;;;;;5050805;28;20056;-66
2021/07/04 08:23:27;;;;;;;16.88;14.75;;;29.40;68.10;;;;;;5048373;28;20480;-66
2021/07/04 08:25:53;;;;;;;13.50;12.00;;;29.40;67.80;;;;;;5049838;28;20127;-66
2021/07/04 08:28:19;;;;;;;21.27;15.43;;;29.40;67.50;;;;;;5042056;28;20068;-66
2021/07/04 08:30:45;;;;;;;14.60;13.10;;;29.40;67.60;;;;;;5047989;28;20060;-66
2021/07/04 08:33:12;;;;;;;12.65;11.38;;;29.40;67.60;;;;;;5046095;28;20025;-66
2021/07/04 08:35:37;;;;;;;12.18;10.77;;;29.40;67.70;;;;;;5043685;28;20110;-66
2021/07/04 08:38:04;;;;;;;12.10;10.90;;;29.40;67.80;;;;;;5047708;28;20021;-66
2021/07/04 08:40:30;;;;;;;13.48;10.80;;;29.30;67.70;;;;;;5049935;28;20044;-66
2021/07/04 08:42:55;;;;;;;11.55;9.90;;;29.30;67.30;;;;;;5054187;28;20070;-66
2021/07/04 08:45:21;;;;;;;12.25;10.05;;;29.30;67.30;;;;;;5040594;28;20018;-66
2021/07/04 08:47:47;;;;;;;11.40;9.52;;;29.20;66.70;;;;;;5047002;28;20542;-66
2021/07/04 08:50:13;;;;;;;9.38;8.30;;;29.10;66.70;;;;;;5044697;28;20056;-66
2021/07/04 08:52:39;;;;;;;8.25;7.32;;;29.10;66.20;;;;;;5048166;28;20044;-66
2021/07/04 08:55:07;;;;;;;10.27;7.70;;;29.10;65.50;;;;;;5038817;28;20029;-66
2021/07/04 08:57:33;;;;;;;8.70;7.85;;;29.00;65.10;;;;;;5039110;28;20029;-66
2021/07/04 08:59:59;;;;;;;9.82;8.93;;;29.00;65.40;;;;;;5051622;28;20021;-66
2021/07/04 09:02:51;;;;;;;9.52;8.63;;;29.00;66.10;;;;;;5041988;28;20033;-66
2021/07/04 09:05:17;;;;;;;9.27;8.38;;;28.90;66.00;;;;;;5035135;28;20037;-66
2021/07/04 09:07:43;;;;;;;8.77;7.93;;;28.80;66.10;;;;;;5043246;28;20654;-66
2021/07/04 09:10:12;;;;;;;9.23;8.27;;;28.80;66.20;;;;;;5048633;28;20463;-66
2021/07/04 09:12:40;;;;;;;9.77;8.02;;;28.70;66.10;;;;;;5048509;28;20071;-66
2021/07/04 09:15:12;;;;;;;8.98;8.07;;;28.70;65.90;;;;;;5042499;28;20053;-66
2021/07/04 09:17:40;;;;;;;11.00;8.50;;;28.70;66.30;;;;;;5044148;28;21369;-66
2021/07/04 09:20:11;;;;;;;10.77;8.95;;;28.60;67.00;;;;;;5038743;28;20037;-66
2021/07/04 09:22:39;;;;;;;11.05;9.95;;;28.60;67.50;;;;;;5042170;28;20022;-66
2021/07/04 09:25:26;;;;;;;12.20;10.13;;;28.60;67.70;;;;;;5039929;28;20463;-66
2021/07/04 09:28:16;;;;;;;11.18;10.07;;;28.60;67.90;;;;;;5045633;28;20029;-66
2021/07/04 09:30:54;;;;;;;13.80;10.23;;;28.50;68.30;;;;;;5052077;28;20032;-66
2021/07/04 09:33:27;;;;;;;10.98;9.82;;;28.50;68.50;;;;;;5043462;28;20482;-66
2021/07/04 09:36:04;;;;;;;11.50;10.40;;;28.40;68.80;;;;;;5034398;28;20120;-66
2021/07/04 09:38:32;;;;;;;12.07;10.90;;;28.40;69.10;;;;;;5036535;28;20034;-66
2021/07/04 09:40:58;;;;;;;12.32;10.98;;;28.30;69.80;;;;;;5043090;28;20021;-66
2021/07/04 09:43:27;;;;;;;12.10;10.95;;;28.30;70.30;;;;;;5040250;28;20470;-66
2021/07/04 09:45:56;;;;;;;13.02;10.50;;;28.20;70.10;;;;;;5037592;28;20437;-66
2021/07/04 09:48:42;;;;;;;12.98;11.77;;;28.20;70.50;;;;;;5036356;28;20068;-66
2021/07/04 09:51:15;;;;;;;12.13;10.93;;;28.10;70.70;;;;;;5041423;28;20037;-66
2021/07/04 09:53:44;;;;;;;12.27;10.88;;;28.10;70.80;;;;;;5035754;28;20480;-66
2021/07/04 09:56:22;;;;;;;12.90;11.57;;;28.00;71.50;;;;;;5040171;28;20026;-66
2021/07/04 09:58:50;;;;;;;11.93;10.73;;;28.00;71.70;;;;;;5049414;28;20037;-66
2021/07/04 10:01:34;;;;;;;12.73;11.52;;;28.00;71.70;;;;;;5047673;28;20044;-66
2021/07/04 10:04:00;;;;;;;12.75;11.45;;;28.00;71.70;;;;;;5039066;28;20030;-66
2021/07/04 10:06:27;;;;;;;11.95;10.82;;;27.90;72.20;;;;;;5040783;28;20029;-66
2021/07/04 10:08:53;;;;;;;13.38;11.23;;;27.90;71.90;;;;;;5039241;28;20014;-66
2021/07/04 10:11:19;;;;;;;12.02;10.77;;;27.90;71.60;;;;;;5055514;28;20025;-66
2021/07/04 10:13:49;;;;;;;12.45;11.35;;;27.90;71.60;;;;;;5055267;28;20040;-66
2021/07/04 10:16:17;;;;;;;12.20;10.85;;;27.90;71.90;;;;;;5055616;28;20090;-66
2021/07/04 10:18:45;;;;;;;13.93;11.77;;;27.90;72.00;;;;;;5055831;28;20059;-66
2021/07/04 10:21:12;;;;;;;12.77;11.57;;;27.90;72.10;;;;;;5055539;28;20365;-66
2021/07/04 10:23:47;;;;;;;12.68;11.48;;;27.90;72.10;;;;;;5055316;28;20017;-66
2021/07/04 10:26:13;;;;;;;12.68;11.48;;;27.90;72.10;;;;;;5055152;28;20041;-66
2021/07/04 10:28:41;;;;;;;12.57;11.35;;;28.00;72.20;;;;;;5055269;28;20036;-66
2021/07/04 10:31:16;;;;;;;12.27;11.00;;;27.90;72.30;;;;;;5055163;28;20070;-66
2021/07/04 10:33:42;;;;;;;12.52;11.25;;;27.90;72.30;;;;;;5053595;28;20087;-66
2021/07/04 10:36:20;;;;;;;12.43;11.10;;;27.90;72.50;;;;;;5043604;28;20033;-66
2021/07/04 10:38:54;;;;;;;12.77;11.23;;;27.90;72.60;;;;;;5052703;28;20013;-66
2021/07/04 10:41:38;;;;;;;13.00;11.48;;;27.90;72.50;;;;;;5049676;28;20449;-66
2021/07/04 10:44:12;;;;;;;12.38;11.18;;;27.90;72.30;;;;;;5050296;28;20075;-66
2021/07/04 10:46:43;;;;;;;13.02;10.82;;;27.90;72.70;;;;;;5036451;28;20028;-66
2021/07/04 10:49:20;;;;;;;11.88;10.63;;;27.90;72.90;;;;;;5052965;28;20053;-66
2021/07/04 10:52:05;;;;;;;12.93;11.73;;;27.90;72.80;;;;;;5055626;28;20039;-66
2021/07/04 10:54:46;;;;;;;12.45;11.25;;;28.00;73.00;;;;;;5054637;28;20772;-66
2021/07/04 10:57:11;;;;;;;;;;;27.90;73.30;;;;;;5055149;28;20028;-66
2021/07/04 10:59:59;;;;;;;11.68;10.57;;;27.90;72.90;;;;;;5054966;28;19905;-66
2021/07/04 11:02:41;;;;;;;12.93;11.73;;;27.90;73.10;;;;;;5048495;28;20029;-66
2021/07/04 11:05:29;;;;;;;12.68;11.48;;;27.90;73.20;;;;;;5063861;28;20731;-66
2021/07/04 11:07:54;;;;;;;12.35;11.05;;;27.80;73.30;;;;;;5052503;28;20021;-66
2021/07/04 11:10:34;;;;;;;13.70;12.02;;;27.80;73.50;;;;;;5054365;28;20554;-66
2021/07/04 11:13:09;;;;;;;12.93;11.65;;;27.80;73.70;;;;;;5052513;28;20380;-66
2021/07/04 11:15:36;;;;;;;11.32;10.30;;;27.90;73.70;;;;;;5054432;28;20108;-66
2021/07/04 11:18:12;;;;;;;12.75;11.50;;;27.90;73.70;;;;;;5053592;28;20477;-66
2021/07/04 11:20:42;;;;;;;12.18;11.07;;;27.90;73.40;;;;;;5045820;28;20466;-66
2021/07/04 11:23:11;;;;;;;12.73;11.43;;;27.90;73.50;;;;;;5052191;28;20080;-66
2021/07/04 11:25:44;;;;;;;12.65;11.55;;;27.90;73.50;;;;;;5043630;28;20077;-66
2021/07/04 11:28:16;;;;;;;11.07;9.98;;;27.90;73.70;;;;;;5054097;28;20056;-66
2021/07/04 11:30:53;;;;;;;10.68;9.40;;;28.00;73.60;;;;;;5050815;28;20068;-66
2021/07/04 11:33:38;;;;;;;11.32;10.02;;;28.00;73.30;;;;;;5053429;28;20029;-66
2021/07/04 11:36:14;;;;;;;10.90;9.90;;;28.00;73.20;;;;;;5050044;28;20052;-66
2021/07/04 11:38:41;;;;;;;11.18;10.13;;;28.00;73.10;;;;;;5051401;28;20039;-66
2021/07/04 11:41:11;;;;;;;11.20;10.10;;;28.00;72.80;;;;;;5046557;28;20055;-66
2021/07/04 11:43:41;;;;;;;11.95;9.90;;;28.00;72.90;;;;;;5047125;28;20063;-66
2021/07/04 11:46:13;;;;;;;10.55;9.55;;;28.10;72.90;;;;;;5048428;28;20044;-66
2021/07/04 11:48:50;;;;;;;10.82;9.73;;;28.00;73.00;;;;;;5043174;28;20385;-66
2021/07/04 11:51:24;;;;;;;10.80;9.70;;;28.10;72.50;;;;;;5044453;28;20025;-66
2021/07/04 11:53:51;;;;;;;10.50;9.50;;;28.10;72.10;;;;;;5045674;28;20429;-66
2021/07/04 11:56:17;;;;;;;10.45;9.35;;;28.10;72.20;;;;;;5045143;28;20382;-66
2021/07/04 11:58:43;;;;;;;10.57;9.48;;;28.20;72.10;;;;;;5052837;28;20017;-66
2021/07/04 12:01:21;;;;;;;10.23;9.27;;;28.20;72.20;;;;;;5048433;28;20048;-66
2021/07/04 12:03:56;;;;;;;10.55;9.45;;;28.20;72.00;;;;;;5042109;28;20105;-65
2021/07/04 12:06:23;;;;;;;9.27;8.38;;;28.20;71.60;;;;;;5037007;28;20390;-65
2021/07/04 12:09:00;;;;;;;8.88;8.02;;;28.20;71.30;;;;;;5035711;28;20043;-65
2021/07/04 12:11:39;;;;;;;9.52;7.70;;;28.30;70.90;;;;;;5045699;28;20021;-65
2021/07/04 12:14:25;;;;;;;8.85;8.05;;;28.30;70.60;;;;;;5044119;28;20023;-65
2021/07/04 12:16:56;;;;;;;8.68;7.85;;;28.30;70.30;;;;;;5047324;28;20060;-65
2021/07/04 12:19:30;;;;;;;9.77;8.05;;;28.30;69.90;;;;;;5046876;28;20500;-65
2021/07/04 12:21:57;;;;;;;10.60;8.43;;;28.30;69.50;;;;;;5051815;28;20013;-65
2021/07/04 12:24:34;;;;;;;9.73;8.10;;;28.30;69.60;;;;;;5052398;28;20041;-65
2021/07/04 12:27:00;;;;;;;9.10;8.02;;;28.40;70.00;;;;;;5052618;28;20025;-65
2021/07/04 12:29:26;;;;;;;10.18;8.00;;;28.40;69.70;;;;;;5046913;28;20028;-65
2021/07/04 12:32:04;;;;;;;8.32;7.53;;;28.40;69.40;;;;;;5042171;28;20104;-65
2021/07/04 12:34:31;;;;;;;8.25;7.45;;;28.40;69.30;;;;;;5043418;28;20125;-65
2021/07/04 12:36:58;;;;;;;8.80;7.72;;;28.40;69.00;;;;;;5042376;28;20076;-65
2021/07/04 12:39:31;;;;;;;8.50;7.70;;;28.40;68.90;;;;;;5045858;28;20131;-65
2021/07/04 12:41:58;;;;;;;7.90;7.18;;;28.50;68.90;;;;;;5040748;28;20049;-65